sensor_id;sensor_type;location;lat;lon;timestamp;P1;durP1;ratioP1;P2;durP2;ratioP2
73296;SDS011;61524;50.938;11.396;2023-12-22T00:02:16;10.77;;;1.65;;
73296;SDS011;61524;50.938;11.396;2023-12-22T00:04:41;5.47;;;2.20;;
73296;SDS011;61524;50.938;11.396;2023-12-22T00:07:06;17.33;;;3.03;;
73296;SDS011;61524;50.938;11.396;2023-12-22T00:09:32;12.43;;;2.63;;
73296;SDS011;61524;50.938;11.396;2023-12-22T00:11:57;13.90;;;2.10;;
73296;SDS011;61524;50.938;11.396;2023-12-22T00:14:22;15.00;;;3.27;;
73296;SDS011;61524;50.938;11.396;2023-12-22T00:16:47;12.60;;;3.07;;
73296;SDS011;61524;50.938;11.396;2023-12-22T00:19:13;10.70;;;2.90;;
73296;SDS011;61524;50.938;11.396;2023-12-22T00:21:38;15.63;;;2.28;;
73296;SDS011;61524;50.938;11.396;2023-12-22T00:24:03;8.95;;;2.35;;
73296;SDS011;61524;50.938;11.396;2023-12-22T00:26:29;15.20;;;1.95;;
73296;SDS011;61524;50.938;11.396;2023-12-22T00:28:54;11.43;;;1.80;;
73296;SDS011;61524;50.938;11.396;2023-12-22T00:31:19;11.40;;;2.47;;
73296;SDS011;61524;50.938;11.396;2023-12-22T00:33:45;14.03;;;1.60;;
73296;SDS011;61524;50.938;11.396;2023-12-22T00:36:10;10.90;;;2.90;;
73296;SDS011;61524;50.938;11.396;2023-12-22T00:38:35;11.68;;;2.53;;
73296;SDS011;61524;50.938;11.396;2023-12-22T00:41:01;9.05;;;1.88;;
73296;SDS011;61524;50.938;11.396;2023-12-22T00:43:26;14.70;;;2.03;;
73296;SDS011;61524;50.938;11.396;2023-12-22T00:45:51;6.10;;;3.60;;
73296;SDS011;61524;50.938;11.396;2023-12-22T00:48:17;12.02;;;2.78;;
73296;SDS011;61524;50.938;11.396;2023-12-22T00:50:43;8.57;;;1.88;;
73296;SDS011;61524;50.938;11.396;2023-12-22T00:53:08;13.65;;;2.90;;
73296;SDS011;61524;50.938;11.396;2023-12-22T00:55:33;8.57;;;1.97;;
73296;SDS011;61524;50.938;11.396;2023-12-22T00:57:59;10.40;;;2.43;;
73296;SDS011;61524;50.938;11.396;2023-12-22T01:00:24;6.70;;;2.20;;
73296;SDS011;61524;50.938;11.396;2023-12-22T01:02:49;7.55;;;1.67;;
73296;SDS011;61524;50.938;11.396;2023-12-22T01:05:15;13.10;;;2.23;;
73296;SDS011;61524;50.938;11.396;2023-12-22T01:07:40;8.18;;;1.50;;
73296;SDS011;61524;50.938;11.396;2023-12-22T01:10:05;17.17;;;3.20;;
73296;SDS011;61524;50.938;11.396;2023-12-22T01:12:31;15.70;;;2.15;;
73296;SDS011;61524;50.938;11.396;2023-12-22T01:14:56;14.40;;;2.30;;
73296;SDS011;61524;50.938;11.396;2023-12-22T01:17:22;12.90;;;1.63;;
73296;SDS011;61524;50.938;11.396;2023-12-22T01:19:47;10.32;;;1.98;;
73296;SDS011;61524;50.938;11.396;2023-12-22T01:22:13;10.75;;;1.60;;
73296;SDS011;61524;50.938;11.396;2023-12-22T01:24:38;9.05;;;2.00;;
73296;SDS011;61524;50.938;11.396;2023-12-22T01:27:06;8.38;;;2.00;;
73296;SDS011;61524;50.938;11.396;2023-12-22T01:29:31;8.32;;;1.90;;
73296;SDS011;61524;50.938;11.396;2023-12-22T01:31:56;9.03;;;1.40;;
73296;SDS011;61524;50.938;11.396;2023-12-22T01:34:22;5.80;;;2.10;;
73296;SDS011;61524;50.938;11.396;2023-12-22T01:36:47;16.33;;;2.13;;
73296;SDS011;61524;50.938;11.396;2023-12-22T01:39:12;9.32;;;2.13;;
73296;SDS011;61524;50.938;11.396;2023-12-22T01:41:37;11.77;;;2.17;;
73296;SDS011;61524;50.938;11.396;2023-12-22T01:44:03;8.93;;;2.03;;
73296;SDS011;61524;50.938;11.396;2023-12-22T01:46:28;5.70;;;1.43;;
73296;SDS011;61524;50.938;11.396;2023-12-22T01:48:53;11.18;;;1.77;;
73296;SDS011;61524;50.938;11.396;2023-12-22T01:51:19;9.13;;;1.42;;
73296;SDS011;61524;50.938;11.396;2023-12-22T01:53:44;7.55;;;1.65;;
73296;SDS011;61524;50.938;11.396;2023-12-22T01:56:10;11.15;;;1.50;;
73296;SDS011;61524;50.938;11.396;2023-12-22T01:58:36;5.63;;;1.63;;
73296;SDS011;61524;50.938;11.396;2023-12-22T02:01:01;10.43;;;2.08;;
73296;SDS011;61524;50.938;11.396;2023-12-22T02:03:26;11.83;;;1.60;;
73296;SDS011;61524;50.938;11.396;2023-12-22T02:05:52;9.45;;;1.52;;
73296;SDS011;61524;50.938;11.396;2023-12-22T02:08:18;5.63;;;0.98;;
73296;SDS011;61524;50.938;11.396;2023-12-22T02:10:43;9.80;;;1.58;;
73296;SDS011;61524;50.938;11.396;2023-12-22T02:13:08;7.43;;;1.40;;
73296;SDS011;61524;50.938;11.396;2023-12-22T02:15:34;4.70;;;1.85;;
73296;SDS011;61524;50.938;11.396;2023-12-22T02:18:10;6.50;;;2.10;;
73296;SDS011;61524;50.938;11.396;2023-12-22T02:20:36;10.07;;;1.90;;
73296;SDS011;61524;50.938;11.396;2023-12-22T02:23:01;4.72;;;1.08;;
73296;SDS011;61524;50.938;11.396;2023-12-22T02:25:27;8.77;;;1.92;;
73296;SDS011;61524;50.938;11.396;2023-12-22T02:28:01;4.47;;;1.50;;
73296;SDS011;61524;50.938;11.396;2023-12-22T02:30:32;10.65;;;2.25;;
73296;SDS011;61524;50.938;11.396;2023-12-22T02:33:01;10.00;;;1.95;;
73296;SDS011;61524;50.938;11.396;2023-12-22T02:35:28;7.50;;;1.20;;
73296;SDS011;61524;50.938;11.396;2023-12-22T02:37:56;7.88;;;1.60;;
73296;SDS011;61524;50.938;11.396;2023-12-22T02:40:21;9.20;;;2.22;;
73296;SDS011;61524;50.938;11.396;2023-12-22T02:42:47;5.28;;;1.40;;
73296;SDS011;61524;50.938;11.396;2023-12-22T02:45:16;6.25;;;1.35;;
73296;SDS011;61524;50.938;11.396;2023-12-22T02:47:42;5.82;;;0.95;;
73296;SDS011;61524;50.938;11.396;2023-12-22T02:50:07;3.70;;;1.17;;
73296;SDS011;61524;50.938;11.396;2023-12-22T02:52:33;5.13;;;1.20;;
73296;SDS011;61524;50.938;11.396;2023-12-22T02:54:58;5.55;;;1.60;;
73296;SDS011;61524;50.938;11.396;2023-12-22T02:57:24;10.00;;;1.60;;
73296;SDS011;61524;50.938;11.396;2023-12-22T02:59:49;7.80;;;1.77;;
73296;SDS011;61524;50.938;11.396;2023-12-22T03:02:14;8.93;;;1.47;;
73296;SDS011;61524;50.938;11.396;2023-12-22T03:04:39;9.30;;;1.37;;
73296;SDS011;61524;50.938;11.396;2023-12-22T03:07:05;2.75;;;1.13;;
73296;SDS011;61524;50.938;11.396;2023-12-22T03:09:30;3.88;;;1.20;;
73296;SDS011;61524;50.938;11.396;2023-12-22T03:11:57;7.85;;;1.33;;
73296;SDS011;61524;50.938;11.396;2023-12-22T03:14:26;4.88;;;1.55;;
73296;SDS011;61524;50.938;11.396;2023-12-22T03:16:52;7.68;;;1.40;;
73296;SDS011;61524;50.938;11.396;2023-12-22T03:19:17;8.50;;;1.87;;
73296;SDS011;61524;50.938;11.396;2023-12-22T03:21:42;10.67;;;1.57;;
73296;SDS011;61524;50.938;11.396;2023-12-22T03:24:07;5.93;;;0.90;;
73296;SDS011;61524;50.938;11.396;2023-12-22T03:26:33;7.17;;;1.60;;
73296;SDS011;61524;50.938;11.396;2023-12-22T03:28:58;8.23;;;1.43;;
73296;SDS011;61524;50.938;11.396;2023-12-22T03:31:23;5.65;;;1.17;;
73296;SDS011;61524;50.938;11.396;2023-12-22T03:33:48;8.53;;;2.13;;
73296;SDS011;61524;50.938;11.396;2023-12-22T03:36:14;4.53;;;1.25;;
73296;SDS011;61524;50.938;11.396;2023-12-22T03:38:39;4.57;;;1.20;;
73296;SDS011;61524;50.938;11.396;2023-12-22T03:41:04;6.87;;;1.50;;
73296;SDS011;61524;50.938;11.396;2023-12-22T03:43:30;3.90;;;1.02;;
73296;SDS011;61524;50.938;11.396;2023-12-22T03:45:56;8.73;;;1.77;;
73296;SDS011;61524;50.938;11.396;2023-12-22T03:48:21;6.95;;;1.10;;
73296;SDS011;61524;50.938;11.396;2023-12-22T03:50:47;4.68;;;1.30;;
73296;SDS011;61524;50.938;11.396;2023-12-22T03:53:12;4.90;;;1.63;;
73296;SDS011;61524;50.938;11.396;2023-12-22T03:55:37;5.10;;;1.07;;
73296;SDS011;61524;50.938;11.396;2023-12-22T03:58:02;2.07;;;0.60;;
73296;SDS011;61524;50.938;11.396;2023-12-22T04:00:29;3.47;;;0.70;;
73296;SDS011;61524;50.938;11.396;2023-12-22T04:02:55;6.47;;;0.70;;
73296;SDS011;61524;50.938;11.396;2023-12-22T04:05:20;4.17;;;1.17;;
73296;SDS011;61524;50.938;11.396;2023-12-22T04:07:45;4.43;;;0.90;;
73296;SDS011;61524;50.938;11.396;2023-12-22T04:10:10;2.05;;;0.57;;
73296;SDS011;61524;50.938;11.396;2023-12-22T04:12:36;4.05;;;0.95;;
73296;SDS011;61524;50.938;11.396;2023-12-22T04:15:01;2.55;;;0.80;;
73296;SDS011;61524;50.938;11.396;2023-12-22T04:17:27;0.80;;;0.50;;
73296;SDS011;61524;50.938;11.396;2023-12-22T04:19:52;5.40;;;0.90;;
73296;SDS011;61524;50.938;11.396;2023-12-22T04:22:17;1.35;;;0.73;;
73296;SDS011;61524;50.938;11.396;2023-12-22T04:24:43;1.10;;;0.40;;
73296;SDS011;61524;50.938;11.396;2023-12-22T04:27:08;1.27;;;0.60;;
73296;SDS011;61524;50.938;11.396;2023-12-22T04:29:33;0.65;;;0.60;;
73296;SDS011;61524;50.938;11.396;2023-12-22T04:31:58;1.20;;;0.80;;
73296;SDS011;61524;50.938;11.396;2023-12-22T04:34:24;0.73;;;0.53;;
73296;SDS011;61524;50.938;11.396;2023-12-22T04:36:49;4.97;;;1.07;;
73296;SDS011;61524;50.938;11.396;2023-12-22T04:39:14;1.37;;;0.80;;
73296;SDS011;61524;50.938;11.396;2023-12-22T04:41:39;5.40;;;0.80;;
73296;SDS011;61524;50.938;11.396;2023-12-22T04:44:05;3.53;;;1.07;;
73296;SDS011;61524;50.938;11.396;2023-12-22T04:46:30;2.40;;;1.20;;
73296;SDS011;61524;50.938;11.396;2023-12-22T04:48:56;2.23;;;1.13;;
73296;SDS011;61524;50.938;11.396;2023-12-22T04:51:21;1.27;;;0.95;;
73296;SDS011;61524;50.938;11.396;2023-12-22T04:53:46;0.95;;;0.77;;
73296;SDS011;61524;50.938;11.396;2023-12-22T04:56:11;3.03;;;1.37;;
73296;SDS011;61524;50.938;11.396;2023-12-22T04:58:37;2.95;;;1.42;;
73296;SDS011;61524;50.938;11.396;2023-12-22T05:01:02;6.97;;;1.37;;
73296;SDS011;61524;50.938;11.396;2023-12-22T05:03:27;6.25;;;0.77;;
73296;SDS011;61524;50.938;11.396;2023-12-22T05:05:53;7.27;;;1.83;;
73296;SDS011;61524;50.938;11.396;2023-12-22T05:08:18;5.77;;;0.80;;
73296;SDS011;61524;50.938;11.396;2023-12-22T05:10:43;3.63;;;0.70;;
73296;SDS011;61524;50.938;11.396;2023-12-22T05:13:09;2.33;;;0.60;;
73296;SDS011;61524;50.938;11.396;2023-12-22T05:15:34;3.47;;;1.57;;
73296;SDS011;61524;50.938;11.396;2023-12-22T05:17:59;5.93;;;1.63;;
73296;SDS011;61524;50.938;11.396;2023-12-22T05:20:25;3.60;;;1.00;;
73296;SDS011;61524;50.938;11.396;2023-12-22T05:22:50;3.20;;;1.20;;
73296;SDS011;61524;50.938;11.396;2023-12-22T05:25:15;5.07;;;0.80;;
73296;SDS011;61524;50.938;11.396;2023-12-22T05:27:40;8.63;;;1.10;;
73296;SDS011;61524;50.938;11.396;2023-12-22T05:30:08;2.70;;;0.82;;
73296;SDS011;61524;50.938;11.396;2023-12-22T05:32:33;4.88;;;1.45;;
73296;SDS011;61524;50.938;11.396;2023-12-22T05:34:58;3.73;;;0.70;;
73296;SDS011;61524;50.938;11.396;2023-12-22T05:37:23;4.40;;;1.17;;
73296;SDS011;61524;50.938;11.396;2023-12-22T05:39:49;4.40;;;1.10;;
73296;SDS011;61524;50.938;11.396;2023-12-22T05:42:14;6.37;;;1.10;;
73296;SDS011;61524;50.938;11.396;2023-12-22T05:44:39;1.93;;;1.10;;
73296;SDS011;61524;50.938;11.396;2023-12-22T05:47:05;4.50;;;1.03;;
73296;SDS011;61524;50.938;11.396;2023-12-22T05:49:30;6.65;;;1.05;;
73296;SDS011;61524;50.938;11.396;2023-12-22T05:51:55;3.38;;;0.70;;
73296;SDS011;61524;50.938;11.396;2023-12-22T05:54:21;2.40;;;1.33;;
73296;SDS011;61524;50.938;11.396;2023-12-22T05:56:46;3.33;;;1.47;;
73296;SDS011;61524;50.938;11.396;2023-12-22T05:59:11;4.47;;;1.02;;
73296;SDS011;61524;50.938;11.396;2023-12-22T06:01:36;5.23;;;1.40;;
73296;SDS011;61524;50.938;11.396;2023-12-22T06:04:02;2.83;;;0.60;;
73296;SDS011;61524;50.938;11.396;2023-12-22T06:06:27;3.03;;;0.77;;
73296;SDS011;61524;50.938;11.396;2023-12-22T06:08:53;4.93;;;1.17;;
73296;SDS011;61524;50.938;11.396;2023-12-22T06:11:18;9.07;;;1.23;;
73296;SDS011;61524;50.938;11.396;2023-12-22T06:13:43;4.78;;;1.10;;
73296;SDS011;61524;50.938;11.396;2023-12-22T06:16:12;3.60;;;0.75;;
73296;SDS011;61524;50.938;11.396;2023-12-22T06:18:38;6.40;;;1.40;;
73296;SDS011;61524;50.938;11.396;2023-12-22T06:21:03;3.63;;;1.35;;
73296;SDS011;61524;50.938;11.396;2023-12-22T06:23:29;8.97;;;1.67;;
73296;SDS011;61524;50.938;11.396;2023-12-22T06:25:55;6.40;;;0.88;;
73296;SDS011;61524;50.938;11.396;2023-12-22T06:28:20;7.37;;;1.20;;
73296;SDS011;61524;50.938;11.396;2023-12-22T06:30:45;6.70;;;1.20;;
73296;SDS011;61524;50.938;11.396;2023-12-22T06:33:12;9.68;;;2.05;;
73296;SDS011;61524;50.938;11.396;2023-12-22T06:35:37;5.22;;;1.23;;
73296;SDS011;61524;50.938;11.396;2023-12-22T06:38:02;5.50;;;1.10;;
73296;SDS011;61524;50.938;11.396;2023-12-22T06:40:30;9.98;;;2.03;;
73296;SDS011;61524;50.938;11.396;2023-12-22T06:42:55;5.57;;;1.10;;
73296;SDS011;61524;50.938;11.396;2023-12-22T06:45:21;4.27;;;0.83;;
73296;SDS011;61524;50.938;11.396;2023-12-22T06:47:46;4.30;;;0.97;;
73296;SDS011;61524;50.938;11.396;2023-12-22T06:50:11;1.67;;;0.60;;
73296;SDS011;61524;50.938;11.396;2023-12-22T06:52:36;4.57;;;0.63;;
73296;SDS011;61524;50.938;11.396;2023-12-22T06:55:02;3.77;;;1.13;;
73296;SDS011;61524;50.938;11.396;2023-12-22T06:57:27;4.07;;;0.68;;
73296;SDS011;61524;50.938;11.396;2023-12-22T06:59:52;3.50;;;0.63;;
73296;SDS011;61524;50.938;11.396;2023-12-22T07:02:18;3.80;;;0.95;;
73296;SDS011;61524;50.938;11.396;2023-12-22T07:07:33;1.25;;;0.52;;
73296;SDS011;61524;50.938;11.396;2023-12-22T07:09:59;3.53;;;0.80;;
73296;SDS011;61524;50.938;11.396;2023-12-22T07:12:24;1.93;;;0.60;;
73296;SDS011;61524;50.938;11.396;2023-12-22T07:14:49;0.90;;;0.50;;
73296;SDS011;61524;50.938;11.396;2023-12-22T07:17:14;4.23;;;0.57;;
73296;SDS011;61524;50.938;11.396;2023-12-22T07:19:40;2.83;;;0.60;;
73296;SDS011;61524;50.938;11.396;2023-12-22T07:22:05;1.03;;;0.60;;
73296;SDS011;61524;50.938;11.396;2023-12-22T07:24:31;1.50;;;0.70;;
73296;SDS011;61524;50.938;11.396;2023-12-22T07:26:56;2.97;;;0.80;;
73296;SDS011;61524;50.938;11.396;2023-12-22T07:29:21;1.60;;;0.60;;
73296;SDS011;61524;50.938;11.396;2023-12-22T07:31:46;7.53;;;1.03;;
73296;SDS011;61524;50.938;11.396;2023-12-22T07:34:13;2.77;;;1.00;;
73296;SDS011;61524;50.938;11.396;2023-12-22T07:36:38;6.28;;;1.00;;
73296;SDS011;61524;50.938;11.396;2023-12-22T07:39:04;2.47;;;0.45;;
73296;SDS011;61524;50.938;11.396;2023-12-22T07:41:29;4.70;;;1.35;;
73296;SDS011;61524;50.938;11.396;2023-12-22T07:43:54;3.37;;;0.50;;
73296;SDS011;61524;50.938;11.396;2023-12-22T07:46:20;3.57;;;1.33;;
73296;SDS011;61524;50.938;11.396;2023-12-22T07:48:47;6.65;;;1.25;;
73296;SDS011;61524;50.938;11.396;2023-12-22T07:51:12;3.77;;;1.10;;
73296;SDS011;61524;50.938;11.396;2023-12-22T07:53:37;2.93;;;0.60;;
73296;SDS011;61524;50.938;11.396;2023-12-22T07:56:03;2.67;;;1.02;;
73296;SDS011;61524;50.938;11.396;2023-12-22T07:58:30;1.35;;;0.77;;
73296;SDS011;61524;50.938;11.396;2023-12-22T08:00:56;1.42;;;0.80;;
73296;SDS011;61524;50.938;11.396;2023-12-22T08:03:21;6.32;;;0.73;;
73296;SDS011;61524;50.938;11.396;2023-12-22T08:05:46;6.43;;;1.33;;
73296;SDS011;61524;50.938;11.396;2023-12-22T08:08:12;1.65;;;0.80;;
73296;SDS011;61524;50.938;11.396;2023-12-22T08:10:37;3.37;;;0.70;;
73296;SDS011;61524;50.938;11.396;2023-12-22T08:13:02;2.53;;;0.82;;
73296;SDS011;61524;50.938;11.396;2023-12-22T08:15:28;2.97;;;1.05;;
73296;SDS011;61524;50.938;11.396;2023-12-22T08:17:53;4.03;;;1.17;;
73296;SDS011;61524;50.938;11.396;2023-12-22T08:20:19;3.50;;;0.90;;
73296;SDS011;61524;50.938;11.396;2023-12-22T08:22:45;2.42;;;0.80;;
73296;SDS011;61524;50.938;11.396;2023-12-22T08:25:10;2.72;;;0.55;;
73296;SDS011;61524;50.938;11.396;2023-12-22T08:27:36;4.97;;;0.97;;
73296;SDS011;61524;50.938;11.396;2023-12-22T08:30:01;1.27;;;0.43;;
73296;SDS011;61524;50.938;11.396;2023-12-22T08:32:28;5.05;;;1.02;;
73296;SDS011;61524;50.938;11.396;2023-12-22T08:34:53;2.42;;;0.68;;
73296;SDS011;61524;50.938;11.396;2023-12-22T08:37:18;10.07;;;1.33;;
73296;SDS011;61524;50.938;11.396;2023-12-22T08:39:44;4.67;;;0.93;;
73296;SDS011;61524;50.938;11.396;2023-12-22T08:42:09;2.60;;;0.80;;
73296;SDS011;61524;50.938;11.396;2023-12-22T08:44:34;2.58;;;0.95;;
73296;SDS011;61524;50.938;11.396;2023-12-22T08:47:00;5.63;;;1.20;;
73296;SDS011;61524;50.938;11.396;2023-12-22T08:49:25;2.80;;;0.37;;
73296;SDS011;61524;50.938;11.396;2023-12-22T08:51:50;3.63;;;1.10;;
73296;SDS011;61524;50.938;11.396;2023-12-22T08:54:15;4.00;;;1.17;;
73296;SDS011;61524;50.938;11.396;2023-12-22T08:56:41;4.95;;;1.30;;
73296;SDS011;61524;50.938;11.396;2023-12-22T08:59:06;5.43;;;1.00;;
73296;SDS011;61524;50.938;11.396;2023-12-22T09:03:58;5.80;;;1.77;;
73296;SDS011;61524;50.938;11.396;2023-12-22T09:06:24;4.87;;;0.90;;
73296;SDS011;61524;50.938;11.396;2023-12-22T09:08:49;3.85;;;1.00;;
73296;SDS011;61524;50.938;11.396;2023-12-22T09:11:16;7.07;;;1.58;;
73296;SDS011;61524;50.938;11.396;2023-12-22T09:13:42;3.80;;;1.05;;
73296;SDS011;61524;50.938;11.396;2023-12-22T09:16:07;3.33;;;0.73;;
73296;SDS011;61524;50.938;11.396;2023-12-22T09:18:33;4.53;;;1.05;;
73296;SDS011;61524;50.938;11.396;2023-12-22T09:20:58;7.25;;;0.93;;
73296;SDS011;61524;50.938;11.396;2023-12-22T09:23:24;6.47;;;1.42;;
73296;SDS011;61524;50.938;11.396;2023-12-22T09:25:49;3.00;;;0.67;;
73296;SDS011;61524;50.938;11.396;2023-12-22T09:28:15;4.93;;;1.58;;
73296;SDS011;61524;50.938;11.396;2023-12-22T09:30:40;7.00;;;0.90;;
73296;SDS011;61524;50.938;11.396;2023-12-22T09:33:06;3.22;;;0.80;;
73296;SDS011;61524;50.938;11.396;2023-12-22T09:35:32;6.38;;;1.30;;
73296;SDS011;61524;50.938;11.396;2023-12-22T09:37:57;5.70;;;0.93;;
73296;SDS011;61524;50.938;11.396;2023-12-22T09:40:23;1.05;;;0.70;;
73296;SDS011;61524;50.938;11.396;2023-12-22T09:42:49;5.30;;;0.90;;
73296;SDS011;61524;50.938;11.396;2023-12-22T09:45:16;3.15;;;0.93;;
73296;SDS011;61524;50.938;11.396;2023-12-22T09:47:42;2.15;;;1.00;;
73296;SDS011;61524;50.938;11.396;2023-12-22T09:52:34;3.00;;;1.03;;
73296;SDS011;61524;50.938;11.396;2023-12-22T09:55:00;3.05;;;0.75;;
73296;SDS011;61524;50.938;11.396;2023-12-22T09:57:26;4.50;;;1.13;;
73296;SDS011;61524;50.938;11.396;2023-12-22T09:59:52;5.53;;;1.05;;
73296;SDS011;61524;50.938;11.396;2023-12-22T10:02:18;5.28;;;1.95;;
73296;SDS011;61524;50.938;11.396;2023-12-22T10:04:43;7.90;;;1.25;;
73296;SDS011;61524;50.938;11.396;2023-12-22T10:07:09;3.15;;;0.80;;
73296;SDS011;61524;50.938;11.396;2023-12-22T10:09:38;5.75;;;0.98;;
73296;SDS011;61524;50.938;11.396;2023-12-22T10:12:04;6.72;;;1.13;;
73296;SDS011;61524;50.938;11.396;2023-12-22T10:14:30;1.75;;;0.80;;
73296;SDS011;61524;50.938;11.396;2023-12-22T10:16:57;6.55;;;1.08;;
73296;SDS011;61524;50.938;11.396;2023-12-22T10:19:22;2.55;;;1.20;;
73296;SDS011;61524;50.938;11.396;2023-12-22T10:21:50;6.70;;;1.38;;
73296;SDS011;61524;50.938;11.396;2023-12-22T10:27:00;5.78;;;1.63;;
73296;SDS011;61524;50.938;11.396;2023-12-22T10:29:25;5.13;;;1.27;;
73296;SDS011;61524;50.938;11.396;2023-12-22T10:31:50;4.73;;;0.80;;
73296;SDS011;61524;50.938;11.396;2023-12-22T10:34:16;2.47;;;0.90;;
73296;SDS011;61524;50.938;11.396;2023-12-22T10:36:41;4.82;;;0.73;;
73296;SDS011;61524;50.938;11.396;2023-12-22T10:39:07;2.97;;;0.55;;
73296;SDS011;61524;50.938;11.396;2023-12-22T10:41:33;2.08;;;0.73;;
73296;SDS011;61524;50.938;11.396;2023-12-22T10:43:58;3.97;;;1.23;;
73296;SDS011;61524;50.938;11.396;2023-12-22T10:46:23;2.77;;;0.93;;
73296;SDS011;61524;50.938;11.396;2023-12-22T10:48:52;3.50;;;1.20;;
73296;SDS011;61524;50.938;11.396;2023-12-22T10:51:17;4.30;;;0.77;;
73296;SDS011;61524;50.938;11.396;2023-12-22T10:53:43;3.15;;;0.70;;
73296;SDS011;61524;50.938;11.396;2023-12-22T10:56:09;3.45;;;1.05;;
73296;SDS011;61524;50.938;11.396;2023-12-22T10:58:34;5.88;;;1.13;;
73296;SDS011;61524;50.938;11.396;2023-12-22T11:01:00;3.42;;;0.75;;
73296;SDS011;61524;50.938;11.396;2023-12-22T11:03:26;4.85;;;1.00;;
73296;SDS011;61524;50.938;11.396;2023-12-22T11:05:53;4.63;;;0.82;;
73296;SDS011;61524;50.938;11.396;2023-12-22T11:08:19;3.30;;;0.70;;
73296;SDS011;61524;50.938;11.396;2023-12-22T11:10:47;5.47;;;1.10;;
73296;SDS011;61524;50.938;11.396;2023-12-22T11:13:13;4.18;;;1.35;;
73296;SDS011;61524;50.938;11.396;2023-12-22T11:15:39;7.18;;;1.40;;
73296;SDS011;61524;50.938;11.396;2023-12-22T11:18:05;5.38;;;1.20;;
73296;SDS011;61524;50.938;11.396;2023-12-22T11:20:30;3.95;;;0.73;;
73296;SDS011;61524;50.938;11.396;2023-12-22T11:22:57;4.32;;;1.23;;
73296;SDS011;61524;50.938;11.396;2023-12-22T11:25:24;5.55;;;1.20;;
73296;SDS011;61524;50.938;11.396;2023-12-22T11:27:50;5.47;;;1.00;;
73296;SDS011;61524;50.938;11.396;2023-12-22T11:30:17;3.83;;;1.80;;
73296;SDS011;61524;50.938;11.396;2023-12-22T11:32:43;6.55;;;1.25;;
73296;SDS011;61524;50.938;11.396;2023-12-22T11:35:09;1.90;;;0.73;;
73296;SDS011;61524;50.938;11.396;2023-12-22T11:37:35;3.57;;;1.10;;
73296;SDS011;61524;50.938;11.396;2023-12-22T11:40:00;5.60;;;1.42;;
73296;SDS011;61524;50.938;11.396;2023-12-22T11:42:28;6.13;;;0.68;;
73296;SDS011;61524;50.938;11.396;2023-12-22T11:44:53;2.85;;;0.73;;
73296;SDS011;61524;50.938;11.396;2023-12-22T11:47:22;0.90;;;0.57;;
73296;SDS011;61524;50.938;11.396;2023-12-22T11:49:47;1.77;;;0.80;;
73296;SDS011;61524;50.938;11.396;2023-12-22T11:52:15;2.50;;;0.68;;
73296;SDS011;61524;50.938;11.396;2023-12-22T11:54:44;4.45;;;0.50;;
73296;SDS011;61524;50.938;11.396;2023-12-22T12:02:37;2.00;;;0.50;;
73296;SDS011;61524;50.938;11.396;2023-12-22T12:05:04;0.90;;;0.63;;
73296;SDS011;61524;50.938;11.396;2023-12-22T12:10:08;1.15;;;0.68;;
73296;SDS011;61524;50.938;11.396;2023-12-22T12:12:34;1.77;;;0.60;;
73296;SDS011;61524;50.938;11.396;2023-12-22T12:15:06;2.83;;;0.50;;
73296;SDS011;61524;50.938;11.396;2023-12-22T12:17:32;1.88;;;0.70;;
73296;SDS011;61524;50.938;11.396;2023-12-22T12:19:57;1.35;;;0.55;;
73296;SDS011;61524;50.938;11.396;2023-12-22T12:22:23;0.63;;;0.38;;
73296;SDS011;61524;50.938;11.396;2023-12-22T12:24:50;1.15;;;0.40;;
73296;SDS011;61524;50.938;11.396;2023-12-22T12:27:18;1.77;;;0.50;;
73296;SDS011;61524;50.938;11.396;2023-12-22T12:29:44;2.65;;;0.80;;
73296;SDS011;61524;50.938;11.396;2023-12-22T12:32:09;0.73;;;0.47;;
73296;SDS011;61524;50.938;11.396;2023-12-22T12:34:38;3.15;;;1.10;;
73296;SDS011;61524;50.938;11.396;2023-12-22T12:37:04;3.25;;;1.08;;
73296;SDS011;61524;50.938;11.396;2023-12-22T12:39:29;3.05;;;1.38;;
73296;SDS011;61524;50.938;11.396;2023-12-22T12:41:56;1.88;;;1.00;;
73296;SDS011;61524;50.938;11.396;2023-12-22T12:44:24;0.88;;;0.50;;
73296;SDS011;61524;50.938;11.396;2023-12-22T12:46:50;5.05;;;1.67;;
73296;SDS011;61524;50.938;11.396;2023-12-22T12:49:15;4.83;;;1.50;;
73296;SDS011;61524;50.938;11.396;2023-12-22T12:51:41;2.40;;;0.55;;
73296;SDS011;61524;50.938;11.396;2023-12-22T12:54:07;4.35;;;0.70;;
73296;SDS011;61524;50.938;11.396;2023-12-22T12:56:43;3.20;;;1.10;;
73296;SDS011;61524;50.938;11.396;2023-12-22T12:59:09;2.88;;;0.95;;
73296;SDS011;61524;50.938;11.396;2023-12-22T13:01:39;2.83;;;1.33;;
73296;SDS011;61524;50.938;11.396;2023-12-22T13:04:04;1.50;;;0.93;;
73296;SDS011;61524;50.938;11.396;2023-12-22T13:06:31;4.90;;;0.70;;
73296;SDS011;61524;50.938;11.396;2023-12-22T13:08:57;2.90;;;0.90;;
73296;SDS011;61524;50.938;11.396;2023-12-22T13:11:22;1.87;;;0.63;;
73296;SDS011;61524;50.938;11.396;2023-12-22T13:13:48;1.23;;;0.52;;
73296;SDS011;61524;50.938;11.396;2023-12-22T13:16:17;1.50;;;0.98;;
73296;SDS011;61524;50.938;11.396;2023-12-22T13:18:42;2.22;;;0.93;;
73296;SDS011;61524;50.938;11.396;2023-12-22T13:21:08;3.80;;;1.30;;
73296;SDS011;61524;50.938;11.396;2023-12-22T13:23:33;0.70;;;0.35;;
73296;SDS011;61524;50.938;11.396;2023-12-22T13:25:58;2.10;;;0.83;;
73296;SDS011;61524;50.938;11.396;2023-12-22T13:28:27;1.67;;;0.63;;
73296;SDS011;61524;50.938;11.396;2023-12-22T13:30:55;1.10;;;0.50;;
73296;SDS011;61524;50.938;11.396;2023-12-22T13:33:21;1.45;;;0.63;;
73296;SDS011;61524;50.938;11.396;2023-12-22T13:35:46;0.75;;;0.50;;
73296;SDS011;61524;50.938;11.396;2023-12-22T13:38:12;1.45;;;0.52;;
73296;SDS011;61524;50.938;11.396;2023-12-22T13:40:37;2.70;;;0.82;;
73296;SDS011;61524;50.938;11.396;2023-12-22T13:43:03;0.57;;;0.40;;
73296;SDS011;61524;50.938;11.396;2023-12-22T13:45:29;1.23;;;0.45;;
73296;SDS011;61524;50.938;11.396;2023-12-22T13:47:55;3.60;;;0.68;;
73296;SDS011;61524;50.938;11.396;2023-12-22T13:50:20;2.15;;;0.65;;
73296;SDS011;61524;50.938;11.396;2023-12-22T13:52:48;1.35;;;0.60;;
73296;SDS011;61524;50.938;11.396;2023-12-22T13:55:15;4.95;;;0.98;;
73296;SDS011;61524;50.938;11.396;2023-12-22T13:57:41;1.05;;;0.47;;
73296;SDS011;61524;50.938;11.396;2023-12-22T14:00:25;2.47;;;0.70;;
73296;SDS011;61524;50.938;11.396;2023-12-22T14:02:51;1.63;;;0.80;;
73296;SDS011;61524;50.938;11.396;2023-12-22T14:05:17;1.27;;;0.63;;
73296;SDS011;61524;50.938;11.396;2023-12-22T14:07:43;1.17;;;0.70;;
73296;SDS011;61524;50.938;11.396;2023-12-22T14:10:08;1.05;;;0.75;;
73296;SDS011;61524;50.938;11.396;2023-12-22T14:12:35;0.80;;;0.30;;
73296;SDS011;61524;50.938;11.396;2023-12-22T14:15:00;2.30;;;0.50;;
73296;SDS011;61524;50.938;11.396;2023-12-22T14:17:25;1.00;;;0.50;;
73296;SDS011;61524;50.938;11.396;2023-12-22T14:19:51;2.40;;;0.93;;
73296;SDS011;61524;50.938;11.396;2023-12-22T14:22:16;2.63;;;0.50;;
73296;SDS011;61524;50.938;11.396;2023-12-22T14:24:42;1.35;;;0.65;;
73296;SDS011;61524;50.938;11.396;2023-12-22T14:27:07;1.00;;;0.40;;
73296;SDS011;61524;50.938;11.396;2023-12-22T14:29:32;0.73;;;0.50;;
73296;SDS011;61524;50.938;11.396;2023-12-22T14:32:00;2.25;;;0.50;;
73296;SDS011;61524;50.938;11.396;2023-12-22T14:34:25;1.80;;;0.77;;
73296;SDS011;61524;50.938;11.396;2023-12-22T14:36:51;0.50;;;0.40;;
73296;SDS011;61524;50.938;11.396;2023-12-22T14:39:16;1.70;;;0.70;;
73296;SDS011;61524;50.938;11.396;2023-12-22T14:41:41;2.60;;;0.80;;
73296;SDS011;61524;50.938;11.396;2023-12-22T14:44:11;1.77;;;0.55;;